createdAt,value
2022-10-05T06:02:46.759Z,10.10
2022-10-05T06:05:13.681Z,10.10
2022-10-05T06:07:40.217Z,10.20
2022-10-05T06:10:06.769Z,10.20
2022-10-05T06:12:33.280Z,10.20
2022-10-05T06:15:00.058Z,10.20
2022-10-05T06:17:26.829Z,10.20
2022-10-05T06:19:56.864Z,10.20
2022-10-05T06:22:25.603Z,10.30
2022-10-05T06:24:52.308Z,10.30
2022-10-05T06:27:18.955Z,10.30
2022-10-05T06:29:45.502Z,10.30
2022-10-05T06:32:13.317Z,10.30
2022-10-05T06:34:40.084Z,10.30
2022-10-05T06:37:06.652Z,10.30
2022-10-05T06:39:33.348Z,10.40
2022-10-05T06:42:01.514Z,10.40
2022-10-05T06:44:28.184Z,10.50
2022-10-05T06:46:55.928Z,10.50
2022-10-05T06:49:23.655Z,10.50
2022-10-05T06:51:50.435Z,10.60
2022-10-05T06:54:17.041Z,10.60
2022-10-05T06:56:44.045Z,10.70
2022-10-05T06:59:10.994Z,10.70
2022-10-05T07:01:37.786Z,10.80
2022-10-05T07:04:04.549Z,10.80
2022-10-05T07:06:31.201Z,10.90
2022-10-05T07:08:57.903Z,10.90
2022-10-05T07:11:24.526Z,10.90
2022-10-05T07:13:51.577Z,11.00
2022-10-05T07:16:18.129Z,11.10
2022-10-05T07:18:44.838Z,11.10
2022-10-05T07:21:11.540Z,11.20
2022-10-05T07:23:38.113Z,11.30
2022-10-05T07:26:04.629Z,11.30
2022-10-05T07:28:31.732Z,11.30
2022-10-05T07:30:58.410Z,11.40
2022-10-05T07:33:25.116Z,11.40
2022-10-05T07:36:10.628Z,11.50
2022-10-05T07:38:37.255Z,11.50
2022-10-05T07:41:04.081Z,11.60
2022-10-05T07:43:40.260Z,11.60
2022-10-05T07:46:12.379Z,11.70
2022-10-05T07:48:39.173Z,11.80
2022-10-05T07:51:05.896Z,11.90
2022-10-05T07:53:32.780Z,11.90
2022-10-05T07:55:59.408Z,12.00
2022-10-05T07:58:29.269Z,12.10
2022-10-05T08:01:03.049Z,12.20
2022-10-05T08:03:29.866Z,12.20
2022-10-05T08:05:56.529Z,12.30
2022-10-05T08:08:23.063Z,12.30
2022-10-05T08:10:49.650Z,12.40
2022-10-05T08:13:16.339Z,12.50
2022-10-05T08:15:43.192Z,12.60
2022-10-05T08:18:10.021Z,12.60
2022-10-05T08:20:36.642Z,12.60
2022-10-05T08:23:03.213Z,12.70
2022-10-05T08:25:30.159Z,12.80
2022-10-05T08:27:57.270Z,12.80
2022-10-05T08:30:23.957Z,12.90
2022-10-05T08:32:50.702Z,12.90
2022-10-05T08:35:17.849Z,13.00
2022-10-05T08:37:44.413Z,13.00
2022-10-05T08:40:11.243Z,13.10
2022-10-05T08:42:37.856Z,13.10
2022-10-05T08:45:04.998Z,13.10
2022-10-05T08:47:31.953Z,13.10
2022-10-05T08:49:58.542Z,13.10
2022-10-05T08:52:25.991Z,13.20
2022-10-05T08:54:53.174Z,13.20
2022-10-05T08:57:19.845Z,13.20
2022-10-05T08:59:46.498Z,13.30
2022-10-05T09:02:13.371Z,13.30
2022-10-05T09:04:40.087Z,13.30
2022-10-05T09:07:06.618Z,13.40
2022-10-05T09:09:33.130Z,13.30
2022-10-05T09:11:59.668Z,13.30
2022-10-05T09:14:26.361Z,13.40
2022-10-05T09:16:53.297Z,13.40
2022-10-05T09:19:22.750Z,13.50
2022-10-05T09:21:49.650Z,13.50
2022-10-05T09:24:16.625Z,13.50
2022-10-05T09:26:43.336Z,13.50
2022-10-05T09:29:10.035Z,13.50
2022-10-05T09:31:36.735Z,13.50
2022-10-05T09:34:03.229Z,13.60
2022-10-05T09:36:30.886Z,13.60
2022-10-05T09:38:57.655Z,13.60
2022-10-05T09:41:24.234Z,13.60
2022-10-05T09:43:50.908Z,13.60
2022-10-05T09:46:17.469Z,13.70
2022-10-05T09:48:44.172Z,13.70
2022-10-05T09:51:10.793Z,13.70
2022-10-05T09:53:40.639Z,13.70
2022-10-05T09:56:09.158Z,13.80
2022-10-05T09:58:35.747Z,13.80
2022-10-05T10:01:10.018Z,13.90
2022-10-05T10:03:42.884Z,13.90
2022-10-05T10:06:11.325Z,13.90
2022-10-05T10:08:37.862Z,14.00
2022-10-05T10:11:04.406Z,14.10
2022-10-05T10:13:31.010Z,14.00
2022-10-05T10:15:57.896Z,14.10
2022-10-05T10:18:24.640Z,14.10
2022-10-05T10:20:51.183Z,14.10
2022-10-05T10:23:17.799Z,14.10
2022-10-05T10:25:44.365Z,14.10
2022-10-05T10:28:11.061Z,14.20
2022-10-05T10:30:37.635Z,14.20
2022-10-05T10:33:04.576Z,14.30
2022-10-05T10:35:31.654Z,14.30
2022-10-05T10:37:59.059Z,14.40
2022-10-05T10:40:28.806Z,14.50
2022-10-05T10:42:56.292Z,14.60
2022-10-05T10:45:23.015Z,14.60
2022-10-05T10:47:49.889Z,14.70
2022-10-05T10:50:16.471Z,14.80
2022-10-05T10:52:42.997Z,14.80
2022-10-05T10:55:09.658Z,14.80
2022-10-05T10:57:36.298Z,14.90
2022-10-05T11:00:02.941Z,14.90
2022-10-05T11:02:29.460Z,15.00
2022-10-05T11:04:56.210Z,15.00
2022-10-05T11:07:22.824Z,15.20
2022-10-05T11:09:49.463Z,15.20
2022-10-05T11:12:17.790Z,15.30
2022-10-05T11:14:44.291Z,15.30
2022-10-05T11:17:10.820Z,15.30
2022-10-05T11:19:40.793Z,15.40
2022-10-05T11:22:25.294Z,15.50
2022-10-05T11:24:52.028Z,15.70
2022-10-05T11:27:18.761Z,15.70
2022-10-05T11:29:45.358Z,15.70
2022-10-05T11:32:11.848Z,15.70
2022-10-05T11:34:38.469Z,15.70
2022-10-05T11:37:05.048Z,15.70
2022-10-05T11:39:33.445Z,15.70
2022-10-05T11:42:00.089Z,15.70
2022-10-05T11:44:26.707Z,15.90
2022-10-05T11:46:53.418Z,16.00
2022-10-05T11:49:20.123Z,15.90
2022-10-05T12:03:18.275Z,16.70
2022-10-05T17:55:26.477Z,16.30
2022-10-05T17:57:53.138Z,16.40
2022-10-05T18:00:19.669Z,16.40
2022-10-05T18:02:46.205Z,16.40
2022-10-05T18:05:14.226Z,16.40
2022-10-05T18:07:40.771Z,16.40
2022-10-05T18:10:07.419Z,16.40
2022-10-05T18:12:34.092Z,16.40
2022-10-05T18:15:00.654Z,16.50
2022-10-05T18:17:28.536Z,16.50
2022-10-05T18:19:55.131Z,16.50
2022-10-05T18:22:21.734Z,16.60
2022-10-05T18:24:52.961Z,16.60
2022-10-05T18:27:19.531Z,16.60
2022-10-05T18:30:04.971Z,16.70
2022-10-05T18:32:31.722Z,16.70
2022-10-05T18:35:01.989Z,16.70
2022-10-05T18:37:29.570Z,16.70
2022-10-05T18:39:56.109Z,16.70
2022-10-05T18:42:23.042Z,16.70
2022-10-05T18:44:49.750Z,16.60
2022-10-05T18:47:16.451Z,16.60
2022-10-05T18:49:43.012Z,16.60
2022-10-05T18:52:09.690Z,16.50
2022-10-05T18:54:36.207Z,16.50
2022-10-05T18:57:02.888Z,16.40
2022-10-05T18:59:29.553Z,16.40
2022-10-05T19:01:56.330Z,16.40
2022-10-05T19:04:23.476Z,16.40
2022-10-05T19:06:50.426Z,16.30
2022-10-05T19:09:17.004Z,16.30
2022-10-05T19:11:43.984Z,16.30
2022-10-05T19:14:10.667Z,16.30
2022-10-05T19:16:37.181Z,16.30
2022-10-05T19:19:04.426Z,16.20
2022-10-05T19:21:32.076Z,16.30
2022-10-05T19:23:58.606Z,16.30
2022-10-05T19:26:25.262Z,16.20
2022-10-05T19:28:52.095Z,16.20
2022-10-05T19:31:18.689Z,16.20
2022-10-05T19:33:45.439Z,16.20
2022-10-05T19:36:11.971Z,16.20
2022-10-05T19:38:38.724Z,16.10
2022-10-05T19:41:05.404Z,16.20
2022-10-05T19:43:31.918Z,16.20
2022-10-05T19:45:59.034Z,16.20
2022-10-05T19:48:26.970Z,16.20
2022-10-05T19:50:54.257Z,16.30
2022-10-05T19:53:20.793Z,16.30
2022-10-05T19:55:47.462Z,16.40
2022-10-05T19:58:14.072Z,16.40
2022-10-05T20:00:42.296Z,16.40
2022-10-05T20:03:08.992Z,16.30
2022-10-05T20:05:35.641Z,16.40
2022-10-05T20:08:03.534Z,16.40
2022-10-05T20:10:31.175Z,16.40
2022-10-05T20:12:57.775Z,16.40
2022-10-05T20:15:43.754Z,16.40
2022-10-05T20:18:33.605Z,16.40
2022-10-05T20:21:00.751Z,16.50
2022-10-05T20:23:30.416Z,16.50
2022-10-05T20:26:15.993Z,16.50
2022-10-05T20:28:44.300Z,16.50
2022-10-05T20:31:11.010Z,16.50
2022-10-05T20:33:38.934Z,16.60
2022-10-05T20:36:05.690Z,16.50
2022-10-05T20:38:40.634Z,16.50
2022-10-05T20:41:07.732Z,16.60
2022-10-05T20:43:35.926Z,16.60
2022-10-05T20:46:02.771Z,16.60
2022-10-05T20:48:30.220Z,16.60
2022-10-05T20:50:57.242Z,16.50
2022-10-05T20:53:23.956Z,16.60
2022-10-05T20:55:50.564Z,16.60
2022-10-05T20:58:17.991Z,16.60
2022-10-05T21:01:03.534Z,16.60
2022-10-05T21:03:30.616Z,16.60
2022-10-05T21:05:57.186Z,16.60
2022-10-05T21:08:25.162Z,16.60
2022-10-05T21:10:52.055Z,16.60
2022-10-05T21:13:18.680Z,16.60
2022-10-05T21:15:45.230Z,16.60
2022-10-05T21:18:11.834Z,16.60
2022-10-05T21:20:38.474Z,16.60
2022-10-05T21:23:04.998Z,16.60
2022-10-05T21:25:31.580Z,16.60
2022-10-05T21:27:58.122Z,16.60
2022-10-05T21:30:24.835Z,16.60
2022-10-05T21:35:21.086Z,16.60
2022-10-05T21:37:47.755Z,16.60
2022-10-05T21:40:14.433Z,16.60
2022-10-05T21:42:40.982Z,16.60
2022-10-05T21:45:07.721Z,16.60
2022-10-05T21:47:34.395Z,16.60
2022-10-05T21:50:01.225Z,16.60
2022-10-05T21:52:27.870Z,16.60
2022-10-05T21:54:54.409Z,16.60
2022-10-05T21:57:20.918Z,16.60
2022-10-05T21:59:47.441Z,16.60
2022-10-05T22:02:13.991Z,16.60
2022-10-05T22:04:40.640Z,16.60
2022-10-05T22:07:07.229Z,16.60
2022-10-05T22:09:33.980Z,16.50
2022-10-05T22:12:01.161Z,16.50
2022-10-05T22:14:28.230Z,16.40
2022-10-05T22:16:54.828Z,16.30
2022-10-05T22:19:21.589Z,16.30
2022-10-05T22:21:48.232Z,16.20
2022-10-05T22:24:14.768Z,16.20
2022-10-05T22:26:41.311Z,16.10
2022-10-05T22:29:07.888Z,16.10
2022-10-05T22:31:34.463Z,16.10
2022-10-05T22:34:01.011Z,16.10
2022-10-05T22:36:27.684Z,16.10
2022-10-05T22:38:54.350Z,16.10
2022-10-05T22:41:20.998Z,16.20
2022-10-05T22:43:49.946Z,16.10
2022-10-05T22:46:16.880Z,16.10
2022-10-05T22:48:43.496Z,16.20
2022-10-05T22:51:10.336Z,16.20
2022-10-05T22:53:37.079Z,16.20
2022-10-05T22:56:03.612Z,16.20
2022-10-05T22:58:30.607Z,16.20
2022-10-05T23:00:58.899Z,16.20
2022-10-05T23:03:25.568Z,16.00
2022-10-05T23:05:52.157Z,16.00
2022-10-05T23:08:18.851Z,15.80
2022-10-05T23:10:45.728Z,15.60
2022-10-05T23:13:12.280Z,15.10
2022-10-05T23:15:39.004Z,14.80
2022-10-05T23:18:05.606Z,14.50
2022-10-05T23:20:32.275Z,14.30
2022-10-05T23:22:59.046Z,14.10
2022-10-05T23:25:25.596Z,14.10
2022-10-05T23:27:52.277Z,14.00
2022-10-05T23:30:18.996Z,13.90
2022-10-05T23:32:45.803Z,13.90
2022-10-05T23:35:12.580Z,13.90
2022-10-05T23:37:39.267Z,13.80
2022-10-05T23:40:05.960Z,13.80
2022-10-05T23:42:32.507Z,13.70
2022-10-05T23:44:59.108Z,13.70
2022-10-05T23:47:28.366Z,13.70
2022-10-05T23:49:55.367Z,13.70
